Maratha Promise — V7YE5 — position and weather

sailwx.info

Track history (hours):
 
Tides and Currents Weather Stations Pressure Air Temp Water Temp Dewpoint Dewpoint Depression Visibility Wind Speed Wind Dir Waves Ship Positions

Maratha Promise

Last reported at 2016-May-30 21:13 UTC. Time now 2016-Jun-30 17:36 UTC.
Position N 36°37' E 125°25'.
Warning: this ship's position is 30 days out of date.

Length 178 m; draft 10.8 m.

Type: Cargo ship. MMSI: 538004641.

Date/timePositionNaut miles runAvg speedWind from/ knotsBaromVisibWave heightAir tempDewpointWater temp
2016-May-30 21:13N 36°37' E 125°25'810.9
2016-May-30 20:28N 36°29' E 125°24'1010.9
2016-May-30 19:30N 36°18' E 125°22'1110.5
2016-May-30 18:26N 36°07' E 125°21'1010.4
2016-May-30 17:27N 35°57' E 125°19'1010.5
2016-May-30 16:31N 35°47' E 125°19'1010.7
2016-May-30 15:33N 35°37' E 125°18'1111.2
2016-May-30 14:32N 35°25' E 125°16'3710.7
2016-May-30 11:03N 34°51' E 124°59'811.3
2016-May-30 10:19N 34°45' E 124°52'2211.3
2016-May-30 08:21N 34°29' E 124°34'  
Track history (hours):
 
Tides and Currents Weather Stations Pressure Air Temp Water Temp Dewpoint Dewpoint Depression Visibility Wind Speed Wind Dir Waves Ship Positions

Maratha Promise

Last reported at 2016-May-30 21:13 UTC. Time now 2016-Jun-30 17:36 UTC.
Position N 36°37' E 125°25'.
Warning: this ship's position is 30 days out of date.

Length 178 m; draft 10.8 m.

Type: Cargo ship. MMSI: 538004641.

Date/timePositionNaut miles runAvg speedWind from/ knotsBaromVisibWave heightAir tempDewpointWater temp
2016-May-30 21:13N 36°37' E 125°25'810.9
2016-May-30 20:28N 36°29' E 125°24'1010.9
2016-May-30 19:30N 36°18' E 125°22'1110.5
2016-May-30 18:26N 36°07' E 125°21'1010.4
2016-May-30 17:27N 35°57' E 125°19'1010.5
2016-May-30 16:31N 35°47' E 125°19'1010.7
2016-May-30 15:33N 35°37' E 125°18'1111.2
2016-May-30 14:32N 35°25' E 125°16'3710.7
2016-May-30 11:03N 34°51' E 124°59'811.3
2016-May-30 10:19N 34°45' E 124°52'2211.3
2016-May-30 08:21N 34°29' E 124°34'  

Dump ship's entire track history